sensor_id;sensor_type;location;lat;lon;timestamp;P1;durP1;ratioP1;P2;durP2;ratioP2
68653;SDS011;55636;51.108;13.622;2022-09-03T00:00:05;4.65;;;2.95;;
68653;SDS011;55636;51.108;13.622;2022-09-03T00:01:17;3.20;;;2.78;;
68653;SDS011;55636;51.108;13.622;2022-09-03T00:02:41;3.50;;;2.80;;
68653;SDS011;55636;51.108;13.622;2022-09-03T00:04:08;3.17;;;2.58;;
68653;SDS011;55636;51.108;13.622;2022-09-03T00:07:03;3.03;;;2.63;;
68653;SDS011;55636;51.108;13.622;2022-09-03T00:08:14;3.88;;;3.00;;
68653;SDS011;55636;51.108;13.622;2022-09-03T00:10:03;3.88;;;2.90;;
68653;SDS011;55636;51.108;13.622;2022-09-03T00:11:18;5.15;;;3.05;;
68653;SDS011;55636;51.108;13.622;2022-09-03T00:12:28;3.05;;;2.65;;
68653;SDS011;55636;51.108;13.622;2022-09-03T00:13:43;3.85;;;2.83;;
68653;SDS011;55636;51.108;13.622;2022-09-03T00:14:52;3.20;;;2.80;;
68653;SDS011;55636;51.108;13.622;2022-09-03T00:15:58;3.50;;;2.70;;
68653;SDS011;55636;51.108;13.622;2022-09-03T00:17:05;3.72;;;2.60;;
68653;SDS011;55636;51.108;13.622;2022-09-03T00:18:16;5.53;;;2.67;;
68653;SDS011;55636;51.108;13.622;2022-09-03T00:19:23;2.65;;;2.35;;
68653;SDS011;55636;51.108;13.622;2022-09-03T00:20:38;2.65;;;2.40;;
68653;SDS011;55636;51.108;13.622;2022-09-03T00:22:12;3.53;;;2.25;;
68653;SDS011;55636;51.108;13.622;2022-09-03T00:23:20;2.25;;;2.00;;
68653;SDS011;55636;51.108;13.622;2022-09-03T00:24:27;3.70;;;2.22;;
68653;SDS011;55636;51.108;13.622;2022-09-03T00:25:46;2.80;;;2.20;;
68653;SDS011;55636;51.108;13.622;2022-09-03T00:26:59;2.75;;;1.90;;
68653;SDS011;55636;51.108;13.622;2022-09-03T00:28:10;3.72;;;2.33;;
68653;SDS011;55636;51.108;13.622;2022-09-03T00:29:17;3.03;;;2.10;;
68653;SDS011;55636;51.108;13.622;2022-09-03T00:30:25;2.35;;;2.15;;
68653;SDS011;55636;51.108;13.622;2022-09-03T00:34:35;2.20;;;2.00;;
68653;SDS011;55636;51.108;13.622;2022-09-03T00:35:44;2.45;;;1.98;;
68653;SDS011;55636;51.108;13.622;2022-09-03T00:36:49;2.30;;;2.10;;
68653;SDS011;55636;51.108;13.622;2022-09-03T00:37:52;2.25;;;2.05;;
68653;SDS011;55636;51.108;13.622;2022-09-03T00:38:56;2.67;;;2.10;;
68653;SDS011;55636;51.108;13.622;2022-09-03T00:39:59;2.42;;;1.75;;
68653;SDS011;55636;51.108;13.622;2022-09-03T00:41:16;2.88;;;2.08;;
68653;SDS011;55636;51.108;13.622;2022-09-03T00:46:06;2.55;;;2.10;;
68653;SDS011;55636;51.108;13.622;2022-09-03T00:48:48;2.50;;;2.10;;
68653;SDS011;55636;51.108;13.622;2022-09-03T00:51:20;2.53;;;2.13;;
68653;SDS011;55636;51.108;13.622;2022-09-03T00:53:59;2.20;;;1.92;;
68653;SDS011;55636;51.108;13.622;2022-09-03T00:56:53;2.72;;;1.80;;
68653;SDS011;55636;51.108;13.622;2022-09-03T00:58:38;1.90;;;1.70;;
68653;SDS011;55636;51.108;13.622;2022-09-03T01:00:15;3.08;;;1.95;;
68653;SDS011;55636;51.108;13.622;2022-09-03T01:01:33;3.58;;;1.90;;
68653;SDS011;55636;51.108;13.622;2022-09-03T01:02:58;4.13;;;2.08;;
68653;SDS011;55636;51.108;13.622;2022-09-03T01:04:18;4.40;;;2.00;;
68653;SDS011;55636;51.108;13.622;2022-09-03T01:05:49;2.53;;;1.93;;
68653;SDS011;55636;51.108;13.622;2022-09-03T01:07:12;2.90;;;1.80;;
68653;SDS011;55636;51.108;13.622;2022-09-03T01:08:50;2.40;;;1.80;;
68653;SDS011;55636;51.108;13.622;2022-09-03T01:11:58;2.27;;;1.60;;
68653;SDS011;55636;51.108;13.622;2022-09-03T01:13:04;2.37;;;2.10;;
68653;SDS011;55636;51.108;13.622;2022-09-03T01:14:17;2.27;;;1.90;;
68653;SDS011;55636;51.108;13.622;2022-09-03T01:15:34;2.28;;;2.00;;
68653;SDS011;55636;51.108;13.622;2022-09-03T01:18:38;2.30;;;2.10;;
68653;SDS011;55636;51.108;13.622;2022-09-03T01:26:52;1.83;;;1.73;;
68653;SDS011;55636;51.108;13.622;2022-09-03T01:28:17;2.20;;;2.00;;
68653;SDS011;55636;51.108;13.622;2022-09-03T01:29:41;1.90;;;1.80;;
68653;SDS011;55636;51.108;13.622;2022-09-03T01:31:24;3.23;;;1.97;;
68653;SDS011;55636;51.108;13.622;2022-09-03T01:32:35;2.20;;;1.83;;
68653;SDS011;55636;51.108;13.622;2022-09-03T01:33:53;2.53;;;1.73;;
68653;SDS011;55636;51.108;13.622;2022-09-03T01:35:03;2.53;;;2.10;;
68653;SDS011;55636;51.108;13.622;2022-09-03T01:36:12;5.23;;;2.07;;
68653;SDS011;55636;51.108;13.622;2022-09-03T01:39:38;3.17;;;2.20;;
68653;SDS011;55636;51.108;13.622;2022-09-03T01:42:42;2.17;;;1.60;;
68653;SDS011;55636;51.108;13.622;2022-09-03T01:44:13;2.20;;;1.93;;
68653;SDS011;55636;51.108;13.622;2022-09-03T01:45:46;2.33;;;2.10;;
68653;SDS011;55636;51.108;13.622;2022-09-03T01:46:58;2.97;;;1.80;;
68653;SDS011;55636;51.108;13.622;2022-09-03T01:48:23;2.00;;;1.90;;
68653;SDS011;55636;51.108;13.622;2022-09-03T01:49:55;2.67;;;2.00;;
68653;SDS011;55636;51.108;13.622;2022-09-03T01:51:10;2.40;;;1.80;;
68653;SDS011;55636;51.108;13.622;2022-09-03T01:52:32;2.80;;;2.07;;
68653;SDS011;55636;51.108;13.622;2022-09-03T01:53:59;2.50;;;1.80;;
68653;SDS011;55636;51.108;13.622;2022-09-03T02:00:17;3.07;;;2.00;;
68653;SDS011;55636;51.108;13.622;2022-09-03T02:01:29;2.63;;;1.97;;
68653;SDS011;55636;51.108;13.622;2022-09-03T02:02:35;2.23;;;1.93;;
68653;SDS011;55636;51.108;13.622;2022-09-03T02:03:38;2.50;;;2.00;;
68653;SDS011;55636;51.108;13.622;2022-09-03T02:04:58;2.20;;;1.90;;
68653;SDS011;55636;51.108;13.622;2022-09-03T02:06:03;1.97;;;1.70;;
68653;SDS011;55636;51.108;13.622;2022-09-03T02:07:08;2.20;;;2.00;;
68653;SDS011;55636;51.108;13.622;2022-09-03T02:08:10;2.57;;;1.80;;
68653;SDS011;55636;51.108;13.622;2022-09-03T02:09:14;1.97;;;1.77;;
68653;SDS011;55636;51.108;13.622;2022-09-03T02:10:21;3.77;;;2.10;;
68653;SDS011;55636;51.108;13.622;2022-09-03T02:11:44;2.10;;;1.90;;
68653;SDS011;55636;51.108;13.622;2022-09-03T02:12:52;2.40;;;2.10;;
68653;SDS011;55636;51.108;13.622;2022-09-03T02:14:01;2.17;;;1.93;;
68653;SDS011;55636;51.108;13.622;2022-09-03T02:15:08;2.33;;;1.90;;
68653;SDS011;55636;51.108;13.622;2022-09-03T02:16:14;3.50;;;2.30;;
68653;SDS011;55636;51.108;13.622;2022-09-03T02:17:21;4.07;;;3.10;;
68653;SDS011;55636;51.108;13.622;2022-09-03T02:18:30;4.97;;;3.87;;
68653;SDS011;55636;51.108;13.622;2022-09-03T02:19:37;8.00;;;5.03;;
68653;SDS011;55636;51.108;13.622;2022-09-03T02:20:40;11.33;;;5.63;;
68653;SDS011;55636;51.108;13.622;2022-09-03T02:21:46;8.80;;;6.20;;
68653;SDS011;55636;51.108;13.622;2022-09-03T02:22:56;12.03;;;7.37;;
68653;SDS011;55636;51.108;13.622;2022-09-03T02:23:59;12.33;;;7.70;;
68653;SDS011;55636;51.108;13.622;2022-09-03T02:25:04;12.90;;;7.90;;
68653;SDS011;55636;51.108;13.622;2022-09-03T02:26:07;13.50;;;8.00;;
68653;SDS011;55636;51.108;13.622;2022-09-03T02:27:12;13.10;;;7.53;;
68653;SDS011;55636;51.108;13.622;2022-09-03T02:28:15;11.47;;;7.40;;
68653;SDS011;55636;51.108;13.622;2022-09-03T02:29:18;11.13;;;6.97;;
68653;SDS011;55636;51.108;13.622;2022-09-03T02:30:21;12.63;;;7.27;;
68653;SDS011;55636;51.108;13.622;2022-09-03T02:31:23;9.57;;;6.13;;
68653;SDS011;55636;51.108;13.622;2022-09-03T02:32:25;9.60;;;6.47;;
68653;SDS011;55636;51.108;13.622;2022-09-03T02:33:30;10.43;;;6.97;;
68653;SDS011;55636;51.108;13.622;2022-09-03T02:34:36;9.40;;;6.17;;
68653;SDS011;55636;51.108;13.622;2022-09-03T02:35:38;10.10;;;6.87;;
68653;SDS011;55636;51.108;13.622;2022-09-03T02:36:43;10.93;;;7.07;;
68653;SDS011;55636;51.108;13.622;2022-09-03T02:37:47;9.03;;;6.40;;
68653;SDS011;55636;51.108;13.622;2022-09-03T02:38:49;10.17;;;7.10;;
68653;SDS011;55636;51.108;13.622;2022-09-03T02:39:51;10.90;;;6.83;;
68653;SDS011;55636;51.108;13.622;2022-09-03T02:40:54;10.40;;;6.30;;
68653;SDS011;55636;51.108;13.622;2022-09-03T02:41:56;9.97;;;6.77;;
68653;SDS011;55636;51.108;13.622;2022-09-03T02:42:59;8.97;;;6.37;;
68653;SDS011;55636;51.108;13.622;2022-09-03T02:45:26;9.77;;;6.10;;
68653;SDS011;55636;51.108;13.622;2022-09-03T02:46:33;9.40;;;6.07;;
68653;SDS011;55636;51.108;13.622;2022-09-03T02:47:40;8.80;;;5.60;;
68653;SDS011;55636;51.108;13.622;2022-09-03T02:48:46;7.67;;;5.70;;
68653;SDS011;55636;51.108;13.622;2022-09-03T02:49:51;7.40;;;5.37;;
68653;SDS011;55636;51.108;13.622;2022-09-03T02:50:53;9.33;;;5.37;;
68653;SDS011;55636;51.108;13.622;2022-09-03T02:51:59;7.57;;;5.03;;
68653;SDS011;55636;51.108;13.622;2022-09-03T02:53:10;6.03;;;5.00;;
68653;SDS011;55636;51.108;13.622;2022-09-03T02:54:12;6.30;;;4.83;;
68653;SDS011;55636;51.108;13.622;2022-09-03T02:55:21;5.33;;;4.20;;
68653;SDS011;55636;51.108;13.622;2022-09-03T02:56:25;6.83;;;4.50;;
68653;SDS011;55636;51.108;13.622;2022-09-03T02:57:28;6.10;;;4.20;;
68653;SDS011;55636;51.108;13.622;2022-09-03T02:58:31;5.33;;;4.23;;
68653;SDS011;55636;51.108;13.622;2022-09-03T02:59:34;6.20;;;4.00;;
68653;SDS011;55636;51.108;13.622;2022-09-03T03:00:36;6.67;;;4.63;;
68653;SDS011;55636;51.108;13.622;2022-09-03T03:01:38;6.13;;;4.17;;
68653;SDS011;55636;51.108;13.622;2022-09-03T03:02:42;5.47;;;3.80;;
68653;SDS011;55636;51.108;13.622;2022-09-03T03:03:45;5.43;;;3.50;;
68653;SDS011;55636;51.108;13.622;2022-09-03T03:04:47;5.00;;;3.70;;
68653;SDS011;55636;51.108;13.622;2022-09-03T03:05:51;4.20;;;3.30;;
68653;SDS011;55636;51.108;13.622;2022-09-03T03:06:56;4.67;;;3.17;;
68653;SDS011;55636;51.108;13.622;2022-09-03T03:07:59;3.87;;;3.17;;
68653;SDS011;55636;51.108;13.622;2022-09-03T03:09:02;4.20;;;2.87;;
68653;SDS011;55636;51.108;13.622;2022-09-03T03:10:08;3.50;;;2.93;;
68653;SDS011;55636;51.108;13.622;2022-09-03T03:11:11;3.97;;;3.17;;
68653;SDS011;55636;51.108;13.622;2022-09-03T03:12:19;3.67;;;3.00;;
68653;SDS011;55636;51.108;13.622;2022-09-03T03:13:22;3.50;;;2.70;;
68653;SDS011;55636;51.108;13.622;2022-09-03T03:14:24;4.87;;;2.67;;
68653;SDS011;55636;51.108;13.622;2022-09-03T03:15:26;2.97;;;2.67;;
68653;SDS011;55636;51.108;13.622;2022-09-03T03:16:31;3.83;;;2.90;;
68653;SDS011;55636;51.108;13.622;2022-09-03T03:17:33;6.03;;;2.90;;
68653;SDS011;55636;51.108;13.622;2022-09-03T03:18:35;4.07;;;2.60;;
68653;SDS011;55636;51.108;13.622;2022-09-03T03:19:38;3.20;;;2.80;;
68653;SDS011;55636;51.108;13.622;2022-09-03T03:20:40;3.10;;;2.67;;
68653;SDS011;55636;51.108;13.622;2022-09-03T03:21:42;2.93;;;2.50;;
68653;SDS011;55636;51.108;13.622;2022-09-03T03:22:45;2.90;;;2.50;;
68653;SDS011;55636;51.108;13.622;2022-09-03T03:23:47;4.57;;;2.50;;
68653;SDS011;55636;51.108;13.622;2022-09-03T03:24:49;3.30;;;2.77;;
68653;SDS011;55636;51.108;13.622;2022-09-03T03:25:52;2.53;;;2.33;;
68653;SDS011;55636;51.108;13.622;2022-09-03T03:26:55;2.90;;;2.60;;
68653;SDS011;55636;51.108;13.622;2022-09-03T03:28:00;3.27;;;2.60;;
68653;SDS011;55636;51.108;13.622;2022-09-03T03:29:04;2.83;;;2.50;;
68653;SDS011;55636;51.108;13.622;2022-09-03T03:30:07;3.10;;;2.60;;
68653;SDS011;55636;51.108;13.622;2022-09-03T03:31:12;5.77;;;2.27;;
68653;SDS011;55636;51.108;13.622;2022-09-03T03:32:16;3.40;;;2.40;;
68653;SDS011;55636;51.108;13.622;2022-09-03T03:33:18;3.53;;;2.23;;
68653;SDS011;55636;51.108;13.622;2022-09-03T03:34:24;2.80;;;2.50;;
68653;SDS011;55636;51.108;13.622;2022-09-03T03:35:26;2.60;;;2.20;;
68653;SDS011;55636;51.108;13.622;2022-09-03T03:36:30;2.60;;;2.23;;
68653;SDS011;55636;51.108;13.622;2022-09-03T03:37:33;5.53;;;2.40;;
68653;SDS011;55636;51.108;13.622;2022-09-03T03:38:36;3.83;;;2.40;;
68653;SDS011;55636;51.108;13.622;2022-09-03T03:39:39;2.20;;;2.00;;
68653;SDS011;55636;51.108;13.622;2022-09-03T03:40:41;3.40;;;2.20;;
68653;SDS011;55636;51.108;13.622;2022-09-03T03:41:43;3.30;;;2.50;;
68653;SDS011;55636;51.108;13.622;2022-09-03T03:42:46;2.40;;;2.20;;
68653;SDS011;55636;51.108;13.622;2022-09-03T03:43:54;3.00;;;2.40;;
68653;SDS011;55636;51.108;13.622;2022-09-03T03:44:58;2.50;;;2.10;;
68653;SDS011;55636;51.108;13.622;2022-09-03T03:46:00;2.23;;;2.03;;
68653;SDS011;55636;51.108;13.622;2022-09-03T03:47:02;3.83;;;2.60;;
68653;SDS011;55636;51.108;13.622;2022-09-03T03:48:07;2.87;;;2.30;;
68653;SDS011;55636;51.108;13.622;2022-09-03T03:49:09;3.20;;;2.27;;
68653;SDS011;55636;51.108;13.622;2022-09-03T03:50:11;2.83;;;2.30;;
68653;SDS011;55636;51.108;13.622;2022-09-03T03:51:14;2.70;;;2.07;;
68653;SDS011;55636;51.108;13.622;2022-09-03T03:52:16;2.53;;;2.30;;
68653;SDS011;55636;51.108;13.622;2022-09-03T03:53:18;3.07;;;2.27;;
68653;SDS011;55636;51.108;13.622;2022-09-03T03:54:21;2.60;;;2.17;;
68653;SDS011;55636;51.108;13.622;2022-09-03T03:55:23;3.27;;;2.30;;
68653;SDS011;55636;51.108;13.622;2022-09-03T03:56:27;2.93;;;2.10;;
68653;SDS011;55636;51.108;13.622;2022-09-03T03:57:30;4.20;;;2.20;;
68653;SDS011;55636;51.108;13.622;2022-09-03T03:58:33;3.00;;;2.07;;
68653;SDS011;55636;51.108;13.622;2022-09-03T03:59:35;2.33;;;2.13;;
68653;SDS011;55636;51.108;13.622;2022-09-03T04:00:37;2.30;;;2.10;;
68653;SDS011;55636;51.108;13.622;2022-09-03T04:01:40;2.43;;;2.20;;
68653;SDS011;55636;51.108;13.622;2022-09-03T04:02:42;2.47;;;2.27;;
68653;SDS011;55636;51.108;13.622;2022-09-03T04:03:45;3.60;;;2.20;;
68653;SDS011;55636;51.108;13.622;2022-09-03T04:04:49;2.23;;;2.03;;
68653;SDS011;55636;51.108;13.622;2022-09-03T04:05:55;2.27;;;2.07;;
68653;SDS011;55636;51.108;13.622;2022-09-03T04:07:00;3.20;;;2.10;;
68653;SDS011;55636;51.108;13.622;2022-09-03T04:08:02;2.27;;;2.07;;
68653;SDS011;55636;51.108;13.622;2022-09-03T04:09:05;2.57;;;2.33;;
68653;SDS011;55636;51.108;13.622;2022-09-03T04:10:07;2.20;;;2.00;;
68653;SDS011;55636;51.108;13.622;2022-09-03T04:11:10;3.00;;;2.30;;
68653;SDS011;55636;51.108;13.622;2022-09-03T04:12:15;4.10;;;2.20;;
68653;SDS011;55636;51.108;13.622;2022-09-03T04:13:18;3.77;;;2.30;;
68653;SDS011;55636;51.108;13.622;2022-09-03T04:14:20;2.63;;;2.30;;
68653;SDS011;55636;51.108;13.622;2022-09-03T04:15:23;2.73;;;2.30;;
68653;SDS011;55636;51.108;13.622;2022-09-03T04:16:26;2.50;;;2.30;;
68653;SDS011;55636;51.108;13.622;2022-09-03T04:17:28;2.50;;;2.20;;
68653;SDS011;55636;51.108;13.622;2022-09-03T04:18:33;3.00;;;1.90;;
68653;SDS011;55636;51.108;13.622;2022-09-03T04:19:36;2.93;;;2.10;;
68653;SDS011;55636;51.108;13.622;2022-09-03T04:20:39;2.57;;;2.10;;
68653;SDS011;55636;51.108;13.622;2022-09-03T04:21:41;4.00;;;2.13;;
68653;SDS011;55636;51.108;13.622;2022-09-03T04:22:44;2.57;;;2.17;;
68653;SDS011;55636;51.108;13.622;2022-09-03T04:23:52;2.77;;;2.27;;
68653;SDS011;55636;51.108;13.622;2022-09-03T04:24:55;3.90;;;1.83;;
68653;SDS011;55636;51.108;13.622;2022-09-03T04:25:57;2.60;;;2.00;;
68653;SDS011;55636;51.108;13.622;2022-09-03T04:26:59;3.37;;;2.13;;
68653;SDS011;55636;51.108;13.622;2022-09-03T04:28:02;2.77;;;1.97;;
68653;SDS011;55636;51.108;13.622;2022-09-03T04:29:06;4.57;;;2.00;;
68653;SDS011;55636;51.108;13.622;2022-09-03T04:30:10;4.23;;;2.27;;
68653;SDS011;55636;51.108;13.622;2022-09-03T04:31:14;3.33;;;2.00;;
68653;SDS011;55636;51.108;13.622;2022-09-03T04:32:20;3.07;;;2.10;;
68653;SDS011;55636;51.108;13.622;2022-09-03T04:33:41;2.20;;;1.97;;
68653;SDS011;55636;51.108;13.622;2022-09-03T04:34:43;3.60;;;2.20;;
68653;SDS011;55636;51.108;13.622;2022-09-03T04:35:45;3.27;;;2.00;;
68653;SDS011;55636;51.108;13.622;2022-09-03T04:36:47;3.10;;;2.07;;
68653;SDS011;55636;51.108;13.622;2022-09-03T04:37:53;2.30;;;2.10;;
68653;SDS011;55636;51.108;13.622;2022-09-03T04:38:57;2.97;;;2.03;;
68653;SDS011;55636;51.108;13.622;2022-09-03T04:40:00;3.17;;;1.90;;
68653;SDS011;55636;51.108;13.622;2022-09-03T04:41:03;2.10;;;1.90;;
68653;SDS011;55636;51.108;13.622;2022-09-03T04:42:07;2.00;;;1.80;;
68653;SDS011;55636;51.108;13.622;2022-09-03T04:43:09;3.33;;;2.10;;
68653;SDS011;55636;51.108;13.622;2022-09-03T04:44:11;2.97;;;2.20;;
68653;SDS011;55636;51.108;13.622;2022-09-03T04:45:15;2.50;;;2.30;;
68653;SDS011;55636;51.108;13.622;2022-09-03T04:46:20;2.20;;;2.00;;
68653;SDS011;55636;51.108;13.622;2022-09-03T04:47:25;2.67;;;2.23;;
68653;SDS011;55636;51.108;13.622;2022-09-03T04:48:29;2.80;;;2.50;;
68653;SDS011;55636;51.108;13.622;2022-09-03T04:49:33;2.10;;;1.90;;
68653;SDS011;55636;51.108;13.622;2022-09-03T04:50:35;2.63;;;2.20;;
68653;SDS011;55636;51.108;13.622;2022-09-03T04:51:38;2.77;;;2.10;;
68653;SDS011;55636;51.108;13.622;2022-09-03T04:52:41;2.03;;;1.93;;
68653;SDS011;55636;51.108;13.622;2022-09-03T04:53:44;2.37;;;1.97;;
68653;SDS011;55636;51.108;13.622;2022-09-03T04:54:48;2.90;;;2.23;;
68653;SDS011;55636;51.108;13.622;2022-09-03T04:55:51;2.80;;;2.10;;
68653;SDS011;55636;51.108;13.622;2022-09-03T04:56:53;2.30;;;2.10;;
68653;SDS011;55636;51.108;13.622;2022-09-03T04:57:56;3.90;;;2.40;;
68653;SDS011;55636;51.108;13.622;2022-09-03T04:59:01;2.73;;;2.10;;
68653;SDS011;55636;51.108;13.622;2022-09-03T05:00:05;3.77;;;2.00;;
68653;SDS011;55636;51.108;13.622;2022-09-03T05:01:14;3.20;;;2.10;;
68653;SDS011;55636;51.108;13.622;2022-09-03T05:02:18;2.23;;;1.93;;
68653;SDS011;55636;51.108;13.622;2022-09-03T05:03:22;2.73;;;2.20;;
68653;SDS011;55636;51.108;13.622;2022-09-03T05:04:25;2.50;;;2.30;;
68653;SDS011;55636;51.108;13.622;2022-09-03T05:05:27;3.03;;;2.13;;
68653;SDS011;55636;51.108;13.622;2022-09-03T05:06:30;2.30;;;2.10;;
68653;SDS011;55636;51.108;13.622;2022-09-03T05:07:33;2.97;;;2.20;;
68653;SDS011;55636;51.108;13.622;2022-09-03T05:08:39;2.47;;;2.17;;
68653;SDS011;55636;51.108;13.622;2022-09-03T05:09:41;2.67;;;2.10;;
68653;SDS011;55636;51.108;13.622;2022-09-03T05:10:44;3.03;;;2.20;;
68653;SDS011;55636;51.108;13.622;2022-09-03T05:11:46;3.87;;;2.20;;
68653;SDS011;55636;51.108;13.622;2022-09-03T05:13:01;2.27;;;2.07;;
68653;SDS011;55636;51.108;13.622;2022-09-03T05:14:06;3.40;;;2.20;;
68653;SDS011;55636;51.108;13.622;2022-09-03T05:15:12;2.40;;;2.17;;
68653;SDS011;55636;51.108;13.622;2022-09-03T05:16:15;2.83;;;2.50;;
68653;SDS011;55636;51.108;13.622;2022-09-03T05:17:18;2.57;;;2.17;;
68653;SDS011;55636;51.108;13.622;2022-09-03T05:18:21;4.13;;;2.10;;
68653;SDS011;55636;51.108;13.622;2022-09-03T05:19:24;2.67;;;2.33;;
68653;SDS011;55636;51.108;13.622;2022-09-03T05:20:27;2.63;;;2.20;;
68653;SDS011;55636;51.108;13.622;2022-09-03T05:21:31;2.80;;;2.50;;
68653;SDS011;55636;51.108;13.622;2022-09-03T05:22:36;2.37;;;2.10;;
68653;SDS011;55636;51.108;13.622;2022-09-03T05:23:39;2.50;;;2.00;;
68653;SDS011;55636;51.108;13.622;2022-09-03T05:24:46;2.17;;;1.97;;
68653;SDS011;55636;51.108;13.622;2022-09-03T05:25:59;2.17;;;1.97;;
68653;SDS011;55636;51.108;13.622;2022-09-03T05:27:03;3.07;;;2.20;;
68653;SDS011;55636;51.108;13.622;2022-09-03T05:28:05;3.10;;;2.07;;
68653;SDS011;55636;51.108;13.622;2022-09-03T05:29:08;2.28;;;2.08;;
68653;SDS011;55636;51.108;13.622;2022-09-03T05:30:10;2.37;;;2.17;;
68653;SDS011;55636;51.108;13.622;2022-09-03T05:31:16;3.00;;;2.15;;
68653;SDS011;55636;51.108;13.622;2022-09-03T05:32:22;2.13;;;1.90;;
68653;SDS011;55636;51.108;13.622;2022-09-03T05:33:26;2.40;;;1.90;;
68653;SDS011;55636;51.108;13.622;2022-09-03T05:34:29;3.13;;;2.33;;
68653;SDS011;55636;51.108;13.622;2022-09-03T05:35:32;5.20;;;2.20;;
68653;SDS011;55636;51.108;13.622;2022-09-03T05:36:35;2.50;;;2.20;;
68653;SDS011;55636;51.108;13.622;2022-09-03T05:37:39;2.65;;;2.15;;
68653;SDS011;55636;51.108;13.622;2022-09-03T05:38:41;4.07;;;2.30;;
68653;SDS011;55636;51.108;13.622;2022-09-03T05:39:44;4.15;;;2.20;;
68653;SDS011;55636;51.108;13.622;2022-09-03T05:40:46;3.50;;;2.33;;
68653;SDS011;55636;51.108;13.622;2022-09-03T05:41:48;2.40;;;2.20;;
68653;SDS011;55636;51.108;13.622;2022-09-03T05:42:53;3.95;;;2.28;;
68653;SDS011;55636;51.108;13.622;2022-09-03T05:43:59;4.50;;;2.50;;
68653;SDS011;55636;51.108;13.622;2022-09-03T05:45:02;2.88;;;2.10;;
68653;SDS011;55636;51.108;13.622;2022-09-03T05:46:07;5.63;;;2.75;;
68653;SDS011;55636;51.108;13.622;2022-09-03T05:47:15;2.90;;;2.20;;
68653;SDS011;55636;51.108;13.622;2022-09-03T05:48:17;3.80;;;2.47;;
68653;SDS011;55636;51.108;13.622;2022-09-03T05:49:19;3.25;;;2.70;;
68653;SDS011;55636;51.108;13.622;2022-09-03T05:50:21;3.42;;;2.45;;
68653;SDS011;55636;51.108;13.622;2022-09-03T05:51:24;3.92;;;2.50;;
68653;SDS011;55636;51.108;13.622;2022-09-03T05:52:26;2.60;;;2.40;;
68653;SDS011;55636;51.108;13.622;2022-09-03T05:53:29;2.85;;;2.30;;
68653;SDS011;55636;51.108;13.622;2022-09-03T05:54:32;3.63;;;2.45;;
68653;SDS011;55636;51.108;13.622;2022-09-03T05:55:34;3.67;;;2.30;;
68653;SDS011;55636;51.108;13.622;2022-09-03T05:56:37;4.32;;;2.30;;
68653;SDS011;55636;51.108;13.622;2022-09-03T05:57:43;2.30;;;2.10;;
68653;SDS011;55636;51.108;13.622;2022-09-03T05:58:46;3.67;;;2.22;;
68653;SDS011;55636;51.108;13.622;2022-09-03T05:59:51;4.38;;;2.40;;
68653;SDS011;55636;51.108;13.622;2022-09-03T06:00:54;3.38;;;2.40;;
68653;SDS011;55636;51.108;13.622;2022-09-03T06:01:56;3.15;;;2.42;;
68653;SDS011;55636;51.108;13.622;2022-09-03T06:03:01;2.83;;;2.53;;
68653;SDS011;55636;51.108;13.622;2022-09-03T06:04:08;3.83;;;2.85;;
68653;SDS011;55636;51.108;13.622;2022-09-03T06:05:12;2.85;;;2.50;;
68653;SDS011;55636;51.108;13.622;2022-09-03T06:06:14;2.38;;;2.17;;
68653;SDS011;55636;51.108;13.622;2022-09-03T06:07:17;5.50;;;2.30;;
68653;SDS011;55636;51.108;13.622;2022-09-03T06:08:19;2.83;;;2.30;;
68653;SDS011;55636;51.108;13.622;2022-09-03T06:09:23;3.05;;;2.42;;
68653;SDS011;55636;51.108;13.622;2022-09-03T06:10:25;3.97;;;2.42;;
68653;SDS011;55636;51.108;13.622;2022-09-03T06:11:37;2.63;;;2.40;;
68653;SDS011;55636;51.108;13.622;2022-09-03T06:12:41;2.85;;;2.53;;
68653;SDS011;55636;51.108;13.622;2022-09-03T06:13:45;3.78;;;2.60;;
68653;SDS011;55636;51.108;13.622;2022-09-03T06:14:48;2.55;;;2.35;;
68653;SDS011;55636;51.108;13.622;2022-09-03T06:15:55;2.58;;;2.30;;
68653;SDS011;55636;51.108;13.622;2022-09-03T06:17:01;2.97;;;2.38;;
68653;SDS011;55636;51.108;13.622;2022-09-03T06:18:03;3.90;;;2.42;;
68653;SDS011;55636;51.108;13.622;2022-09-03T06:19:08;2.70;;;2.40;;
68653;SDS011;55636;51.108;13.622;2022-09-03T06:20:11;3.08;;;2.72;;
68653;SDS011;55636;51.108;13.622;2022-09-03T06:21:13;2.35;;;2.15;;
68653;SDS011;55636;51.108;13.622;2022-09-03T06:22:16;2.92;;;2.63;;
68653;SDS011;55636;51.108;13.622;2022-09-03T06:23:18;2.80;;;2.55;;
68653;SDS011;55636;51.108;13.622;2022-09-03T06:24:21;3.55;;;2.88;;
68653;SDS011;55636;51.108;13.622;2022-09-03T06:25:29;2.50;;;2.30;;
68653;SDS011;55636;51.108;13.622;2022-09-03T06:26:34;2.83;;;2.30;;
68653;SDS011;55636;51.108;13.622;2022-09-03T06:27:36;2.50;;;2.30;;
68653;SDS011;55636;51.108;13.622;2022-09-03T06:28:39;4.65;;;2.60;;
68653;SDS011;55636;51.108;13.622;2022-09-03T06:29:44;3.25;;;2.50;;
68653;SDS011;55636;51.108;13.622;2022-09-03T06:30:46;5.05;;;2.70;;
68653;SDS011;55636;51.108;13.622;2022-09-03T06:31:48;2.47;;;2.28;;
68653;SDS011;55636;51.108;13.622;2022-09-03T06:32:51;3.22;;;2.35;;
68653;SDS011;55636;51.108;13.622;2022-09-03T06:33:55;2.85;;;2.58;;
68653;SDS011;55636;51.108;13.622;2022-09-03T06:35:04;2.83;;;2.30;;
68653;SDS011;55636;51.108;13.622;2022-09-03T06:36:07;4.70;;;2.38;;
68653;SDS011;55636;51.108;13.622;2022-09-03T06:37:14;2.45;;;2.25;;
68653;SDS011;55636;51.108;13.622;2022-09-03T06:38:16;2.38;;;2.15;;
68653;SDS011;55636;51.108;13.622;2022-09-03T06:39:22;3.60;;;2.15;;
68653;SDS011;55636;51.108;13.622;2022-09-03T06:40:25;3.78;;;2.15;;
68653;SDS011;55636;51.108;13.622;2022-09-03T06:41:28;3.13;;;2.40;;
68653;SDS011;55636;51.108;13.622;2022-09-03T06:42:33;2.55;;;2.35;;
68653;SDS011;55636;51.108;13.622;2022-09-03T06:43:36;2.85;;;2.38;;
68653;SDS011;55636;51.108;13.622;2022-09-03T06:44:40;2.78;;;2.33;;
68653;SDS011;55636;51.108;13.622;2022-09-03T06:45:42;6.00;;;2.58;;
68653;SDS011;55636;51.108;13.622;2022-09-03T06:46:44;6.63;;;2.38;;
68653;SDS011;55636;51.108;13.622;2022-09-03T06:47:48;3.72;;;2.50;;
68653;SDS011;55636;51.108;13.622;2022-09-03T06:48:50;4.35;;;2.50;;
68653;SDS011;55636;51.108;13.622;2022-09-03T06:49:53;3.70;;;2.45;;
68653;SDS011;55636;51.108;13.622;2022-09-03T06:51:00;2.45;;;2.00;;
68653;SDS011;55636;51.108;13.622;2022-09-03T06:52:05;2.70;;;2.47;;
68653;SDS011;55636;51.108;13.622;2022-09-03T06:53:07;2.67;;;2.45;;
68653;SDS011;55636;51.108;13.622;2022-09-03T06:54:10;2.65;;;2.45;;
68653;SDS011;55636;51.108;13.622;2022-09-03T06:55:13;3.10;;;2.22;;
68653;SDS011;55636;51.108;13.622;2022-09-03T06:56:16;3.42;;;2.13;;
68653;SDS011;55636;51.108;13.622;2022-09-03T06:57:27;2.70;;;2.35;;
68653;SDS011;55636;51.108;13.622;2022-09-03T06:58:31;2.50;;;2.30;;
68653;SDS011;55636;51.108;13.622;2022-09-03T06:59:38;4.68;;;2.10;;
68653;SDS011;55636;51.108;13.622;2022-09-03T07:00:40;2.40;;;2.17;;
68653;SDS011;55636;51.108;13.622;2022-09-03T07:01:44;3.78;;;2.20;;
68653;SDS011;55636;51.108;13.622;2022-09-03T07:02:56;2.45;;;2.15;;
68653;SDS011;55636;51.108;13.622;2022-09-03T07:04:04;1.95;;;1.80;;
68653;SDS011;55636;51.108;13.622;2022-09-03T07:05:07;2.00;;;1.80;;
68653;SDS011;55636;51.108;13.622;2022-09-03T07:06:13;2.08;;;1.88;;
68653;SDS011;55636;51.108;13.622;2022-09-03T07:07:17;2.13;;;1.90;;
68653;SDS011;55636;51.108;13.622;2022-09-03T07:08:19;2.03;;;1.83;;
68653;SDS011;55636;51.108;13.622;2022-09-03T07:09:22;2.70;;;1.85;;